Aeroporto :
LOGIN :

Iscrizione | Disclaimer

   EN    FR    IT 

 










Sommario :    VFR   VFR Marginale   IFR   IFR Intensivo   IFR Molto Intensivo
Visibilità : 
Base nubi : 
>= 8 km
>= 3000ft
5 / 8 km
1000 / 3000 ft
1500m / 5 km
500 / 1000 ft
800 / 1500m
200 / 500 ft
< 800m
< 200 ft
Simboli :   Temporali  Nebbia  Neve Forte  Precipitazioni Forti  Vento > 20 kt
SIGMETs :   Varie  Temporali  Ghiacco  Turbolenza  Onda orograficha  Ceneri Vulcaniche






- Altitudine del aeroporto : 784 ft
- Codice IATA : TZL


LQTZ - Tuzla

ULTIMO METAR :
  • 050700Z 18006G16KT 110V230 9999 SCT025 SCT050 23/08 Q1001

METARs OBSOLETI :
  • 050630Z 22005KT 090V260 9999 SCT025 SCT050 22/08 Q1001
  • 050600Z 17009KT 100V250 9999 SCT040 22/09 Q1001
  • 050530Z 13007KT 070V200 9999 SCT050 22/09 Q1000
  • 050500Z 14009KT 090V220 9999 SCT050 21/09 Q1000
  • 050430Z 13007KT 080V160 9999 SCT050 21/09 Q1001

TAF TAF LQTZ
Valido dal 05 a 06 ore il 06 a 06 ore UTC


050500Z 0506/0606 15007KT 9999 SCT045 TX26/0513Z TN18/0604Z
TEMPO 0512/0518 22012KT
PROB30
TEMPO 0512/0518 VRB15G25KT 4000 TSRA FEW035CB BKN040



MetMap, La meteo Aeronautica in un colpo d'occhio ! - Copyright ORBIFLY Dicembre 2007 - Disclaimer

ORBIFLY MET'MAP TEAM :

Programmazione e sviluppo : Alexandra Zaïnal
Concezione : Baudouin d'Aumeries
Aiuto per la programmazione : Marc-Olivier Méhu
Supporto tecnico e logistico : Manuel Goepfert
Aiuto per la traduzione : Arnaldo La Scala

Contatto : metmap@orbifly.com




FONTI E CREDITI :

   NOAA